Armstrong, Alabama
Current Conditions -  °F | °C
As of 3:55 AM on Saturday 01 Nov 2014 (Local Time) from KAUO Reporting Station
Clear Clear  
Wind Chill: -4°   Ceiling: Unl
Heat Index:   Visibility: 10mi
Dew Point: -5°   Wind: 17mph
Humidity: 60%   Direction: 300°WNW
Pressure: 30.07"   Gusts: 22mph
Location:  32.2227°N, 85.6394°W
Report Text: KAUO 010855Z AUTO 30015G19KT 10SM CLR 02/M05 A3007 RMK AO1 57007
Loading
Personal Weather Stations






























Interactive Weather Map
Tropical Storm Tracking
New forecast layout! Learn more

10-Day Weather Forecast

Advertisements
Track Severe Weather on mobile